Government of Jersey

Home Log in

Channel Islands Terminal Aerodrome Forecasts (TAFs)

Jersey Airport - EGJJ

EGJJ 052001Z 0521/0606 11007KT 8000 FEW014 BKN030 PROB30 TEMPO 0521/0606 9999 PROB40 TEMPO 0521/0606 4000 BR BKN010=

Guernsey Airport - EGJB

EGJB 052001Z 0521/0606 11007KT 7000 FEW014 BKN030 PROB30 TEMPO 0521/0606 9999 PROB30 TEMPO 0521/0606 4000 -SHRA BR BKN010=

Alderney Airport - EGJA

EGJA 051858Z 0518/0600 CNL=